Latest Weather Observations for Julia Creek

IDQ60801

Issued at 6:32 pm EST Thursday 19 January 2017 (issued every 30 minutes, with the page automatically refreshed every 10 minutes)

About weather observations | Map of weather stations | Latest weather observations for QLD | Other Formats
Station Details ID: 029058 Name: JULIA CREEK AIRPORT Lat: -20.67 Lon: 141.72 Height: 122.5 m
Data from the previous 72 hours. | See also: Recent months at Julia Creek
Date/Time
EST
Temp
°C
App
Temp
°C
Dew
Point
°C
Rel
Hum
%
Delta-T
°C
Wind Press
QNH
hPa
Press
MSL
hPa
Rain since
9am
mm
Dir  Spd
km/h
Gust
km/h
Spd
kts
Gust
kts
19/06:30pm 32.4 31.4 21.3 52 7.5 SW 28 46 15 25 1005.3 1004.4 0.0
19/06:26pm 31.4 30.7 21.8 56 6.5 SSW 28 46 15 25 1005.4 1004.5 0.0
19/06:23pm 30.9 30.6 21.1 56 6.6 SSW 24 46 13 25 1005.6 1004.6 0.0
19/06:00pm 35.9 38.2 22.1 44 9.5 N 13 20 7 11 1005.2 1004.3 0.0
19/05:30pm 36.4 39.1 22.2 44 9.8 N 11 17 6 9 1005.1 1004.2 0.0
19/05:00pm 36.5 39.3 22.3 44 9.8 NNW 11 17 6 9 1005.1 1004.2 0.0
19/04:30pm 36.7 40.9 23.5 46 9.3 NW 7 15 4 8 1005.4 1004.5 0.0
19/04:00pm 36.3 39.0 22.1 43 9.8 N 11 17 6 9 1006.0 1005.0 0.0
19/03:30pm 35.1 39.5 22.1 47 8.9 WNW 2 9 1 5 1006.3 1005.3 0.0
19/03:00pm 36.4 40.5 22.2 44 9.8 NW 4 17 2 9 1006.9 1005.9 0.0
19/02:30pm 36.2 40.2 23.1 47 9.1 NNW 7 13 4 7 1007.4 1006.4 0.0
19/02:00pm 35.8 40.0 23.4 48 8.7 WNW 7 17 4 9 1008.0 1007.1 0.0
19/01:30pm 34.9 39.4 23.9 53 7.7 WNW 7 13 4 7 1008.5 1007.6 0.0
19/01:00pm 34.7 39.1 23.4 52 7.9 NNW 6 15 3 8 1009.0 1008.1 0.0
19/12:30pm 34.0 37.6 23.1 53 7.6 NNW 9 19 5 10 1009.3 1008.4 0.0
19/12:00pm 34.6 37.9 24.5 55 7.2 NNW 15 22 8 12 1009.5 1008.6 0.0
19/11:30am 34.5 38.7 24.1 54 7.3 NNW 9 17 5 9 1009.9 1009.0 0.0
19/11:00am 33.1 36.9 24.0 59 6.4 NW 11 17 6 9 1010.2 1009.3 0.0
19/10:30am 33.1 37.7 25.4 64 5.5 NW 11 17 6 9 1010.6 1009.7 0.0
19/10:00am 31.7 36.4 24.0 63 5.4 NW 6 13 3 7 1010.9 1010.0 0.0
19/09:30am 31.7 36.3 24.8 67 4.9 NNW 9 22 5 12 1011.1 1010.2 0.0
19/09:00am 30.6 35.7 25.0 72 4.0 NW 7 13 4 7 1011.3 1010.4 0.2
19/08:30am 29.8 34.7 25.3 77 3.2 NNW 9 15 5 8 1011.5 1010.6 0.2
19/08:00am 28.8 32.9 25.2 81 2.5 N 13 19 7 10 1011.3 1010.4 0.2
19/07:30am 27.9 33.2 25.3 86 1.8 N 7 11 4 6 1011.3 1010.4 0.2
19/07:00am 26.6 31.5 25.2 92 1.0 N 9 11 5 6 1011.0 1010.1 0.2
19/06:30am 25.7 30.3 24.7 94 0.7 N 9 13 5 7 1011.0 1010.1 0.2
19/06:00am 25.3 30.9 24.3 94 0.7 NNW 2 7 1 4 1010.5 1009.6 0.2
19/05:30am 25.6 30.7 24.6 94 0.7 NNW 6 7 3 4 1010.1 1009.2 0.2
19/05:00am 25.4 31.4 24.2 93 0.8 CALM 0 0 0 0 1009.7 1008.8 0.2
19/04:30am 25.4 31.5 24.4 94 0.7 CALM 0 4 0 2 1009.6 1008.7 0.2
19/04:00am 25.4 30.6 24.2 93 0.8 WNW 4 6 2 3 1009.6 1008.7 0.2
19/03:30am 25.5 30.5 24.5 94 0.7 NW 6 7 3 4 1009.5 1008.6 0.2
19/03:00am 25.6 31.6 24.2 92 1.0 CALM 0 0 0 0 1009.5 1008.6 0.2
19/02:30am 25.8 31.8 24.2 91 1.1 CALM 0 0 0 0 1009.8 1008.9 0.2
19/02:00am 26.1 30.8 24.3 90 1.2 NW 7 9 4 5 1009.9 1009.0 0.2
19/01:30am 26.5 31.4 24.3 88 1.5 NNW 6 7 3 4 1010.1 1009.2 0.2
19/01:00am 26.8 31.7 24.6 88 1.5 NNW 7 11 4 6 1010.2 1009.3 0.2
19/12:30am 26.9 31.3 24.5 87 1.7 NNW 9 11 5 6 1010.3 1009.4 0.2
19/12:00am 27.3 31.8 24.6 85 1.9 NNW 9 13 5 7 1010.6 1009.7 0.2
 
Date/Time
EST
Temp
°C
App
Temp
°C
Dew
Point
°C
Rel
Hum
%
Delta-T
°C
Wind Press
QNH
hPa
Press
MSL
hPa
Rain since
9am
mm
Dir  Spd
km/h
Gust
km/h
Spd
kts
Gust
kts
18/11:30pm 27.6 31.7 24.6 84 2.1 NNW 11 15 6 8 1010.7 1009.8 0.2
18/11:00pm 27.7 32.4 24.9 85 2.0 N 9 11 5 6 1010.6 1009.7 0.2
18/10:30pm 27.9 32.2 24.9 84 2.1 N 11 15 6 8 1010.4 1009.5 0.2
18/10:00pm 27.9 33.2 24.9 84 2.1 N 6 7 3 4 1010.1 1009.2 0.2
18/09:30pm 28.4 33.5 24.6 80 2.7 NNW 6 7 3 4 1009.8 1008.9 0.2
18/09:00pm 28.8 33.7 24.4 77 3.1 NNW 6 6 3 3 1009.5 1008.6 0.2
18/08:30pm 29.6 33.4 23.5 69 4.2 N 9 13 5 7 1009.6 1008.7 0.2
18/08:00pm 30.1 35.2 24.0 70 4.3 N 4 6 2 3 1009.2 1008.3 0.2
18/07:30pm 30.9 35.5 23.8 66 4.9 N 6 7 3 4 1009.0 1008.1 0.2
18/07:00pm 32.5 36.7 23.4 58 6.3 NNE 7 11 4 6 1009.0 1008.1 0.2
18/06:30pm 33.9 38.2 22.0 49 8.2 N 2 7 1 4 1008.8 1007.9 0.2
18/06:00pm 34.5 38.6 21.5 46 8.9 NNE 2 6 1 3 1008.5 1007.6 0.2
18/05:30pm 34.7 38.7 21.4 46 9.1 E 2 7 1 4 1008.5 1007.6 0.2
18/05:00pm 34.9 38.5 21.2 45 9.3 NW 4 11 2 6 1008.6 1007.7 0.2
18/04:30pm 35.1 38.8 21.4 45 9.3 NW 4 11 2 6 1008.9 1008.0 0.2
18/04:00pm 35.2 38.7 21.8 45 9.2 SW 6 13 3 7 1009.0 1008.1 0.2
18/03:30pm 34.5 38.2 21.5 46 8.9 SW 4 13 2 7 1009.6 1008.7 0.2
18/03:00pm 34.1 37.8 22.2 50 8.2 W 6 13 3 7 1009.7 1008.8 0.2
18/02:30pm 33.4 37.6 22.5 52 7.5 WNW 4 13 2 7 1010.5 1009.6 0.2
18/02:00pm 33.1 37.2 22.2 52 7.5 W 4 9 2 5 1010.7 1009.8 0.2
18/01:30pm 32.7 36.0 22.5 55 7.0 WNW 9 17 5 9 1011.2 1010.3 0.2
18/01:00pm 32.9 36.5 22.0 52 7.5 NW 6 15 3 8 1011.9 1011.0 0.2
18/12:30pm 31.9 34.5 22.6 58 6.4 NNW 13 19 7 10 1012.3 1011.4 0.2
18/12:00pm 32.6 36.0 23.3 58 6.5 NNW 11 19 6 10 1012.3 1011.4 0.2
18/11:30am 32.5 35.9 24.0 61 6.0 NNW 13 24 7 13 1012.9 1012.0 0.2
18/11:00am 31.6 35.1 22.9 60 6.0 NW 9 19 5 10 1013.4 1012.5 0.2
18/10:30am 31.1 34.9 23.5 64 5.3 N 9 17 5 9 1013.7 1012.8 0.2
18/10:00am 30.5 33.9 23.4 66 4.9 N 11 15 6 8 1013.8 1012.9 0.2
18/09:30am 29.8 33.5 23.3 68 4.5 NNW 9 13 5 7 1013.8 1012.9 0.0
18/09:00am 28.6 32.4 23.5 74 3.5 NW 9 13 5 7 1013.8 1012.9 0.4
18/08:30am 27.6 31.6 23.8 80 2.6 NW 9 13 5 7 1013.7 1012.8 0.4
18/08:00am 26.5 32.1 24.2 87 1.6 N 2 6 1 3 1013.6 1012.7 0.4
18/07:30am 26.0 32.0 24.2 90 1.2 CALM 0 0 0 0 1013.8 1012.9 0.4
18/07:00am 25.5 31.6 24.5 94 0.7 CALM 0 0 0 0 1013.5 1012.6 0.4
18/06:30am 25.2 30.0 24.2 94 0.7 NNW 6 9 3 5 1012.9 1012.0 0.4
18/06:00am 25.2 29.9 24.3 95 0.6 NNW 7 9 4 5 1012.5 1011.6 0.4
18/05:30am 25.2 31.3 24.5 96 0.5 CALM 0 0 0 0 1012.0 1011.1 0.4
18/05:00am 25.1 30.8 24.4 96 0.5 N 2 7 1 4 1011.7 1010.8 0.4
18/04:30am 24.7 30.4 23.7 94 0.7 CALM 0 0 0 0 1011.6 1010.7 0.4
18/04:00am 24.9 30.7 23.9 94 0.7 CALM 0 0 0 0 1011.1 1010.2 0.4
18/03:30am 25.2 31.0 24.0 93 0.8 CALM 0 0 0 0 1010.9 1010.0 0.4
18/03:00am 25.3 31.3 24.3 94 0.7 CALM 0 0 0 0 1011.1 1010.2 0.4
18/02:30am 25.5 31.1 24.3 93 0.8 NE 2 7 1 4 1011.3 1010.4 0.4
18/02:00am 25.7 30.0 24.3 92 1.0 ENE 9 17 5 9 1011.4 1010.5 0.0
18/01:30am 25.9 29.7 24.1 90 1.2 ENE 11 15 6 8 1011.4 1010.5 0.0
18/01:00am 25.6 31.1 24.0 91 1.1 NNW 2 9 1 5 1011.3 1010.4 0.0
18/12:30am 25.4 31.1 23.8 91 1.1 CALM 0 0 0 0 1011.3 1010.4 0.0
18/12:00am 25.4 31.2 24.0 92 1.0 CALM 0 0 0 0 1011.7 1010.8 0.0
 
Date/Time
EST
Temp
°C
App
Temp
°C
Dew
Point
°C
Rel
Hum
%
Delta-T
°C
Wind Press
QNH
hPa
Press
MSL
hPa
Rain since
9am
mm
Dir  Spd
km/h
Gust
km/h
Spd
kts
Gust
kts
17/11:30pm 25.5 31.2 23.7 90 1.2 CALM 0 0 0 0 1011.5 1010.6 0.0
17/11:00pm 25.5 31.1 23.6 89 1.3 CALM 0 2 0 1 1011.3 1010.4 0.0
17/10:30pm 26.0 30.2 23.5 86 1.7 NW 7 9 4 5 1011.8 1010.9 0.0
17/10:00pm 26.6 30.2 23.7 84 2.0 NW 11 13 6 7 1011.5 1010.6 0.0
17/09:30pm 27.4 29.7 24.1 82 2.3 NW 19 30 10 16 1011.6 1010.7 0.0
17/09:00pm 27.4 33.3 24.1 82 2.3 CALM 0 4 0 2 1011.0 1010.1 0.0
17/08:30pm 27.8 32.3 24.0 80 2.6 NNW 7 11 4 6 1011.0 1010.1 0.0
17/08:00pm 27.5 31.8 23.7 80 2.6 WNW 7 9 4 5 1010.6 1009.7 0.0
17/07:30pm 28.2 31.3 23.6 76 3.2 NW 13 15 7 8 1010.4 1009.5 0.0
17/07:00pm 28.8 32.0 23.7 74 3.5 WNW 13 20 7 11 1010.0 1009.1 0.0
17/06:30pm 31.2 35.1 23.0 61 5.7 WNW 7 11 4 6 1009.7 1008.8 0.0
17/06:00pm 32.1 37.5 23.3 59 6.1 CALM 0 0 0 0 1009.2 1008.3 0.0
17/05:30pm 30.2 34.1 23.6 67 4.6 NW 9 13 5 7 1008.8 1007.9 0.0
17/05:00pm 29.9 30.3 23.1 67 4.7 N 26 37 14 20 1008.7 1007.8 0.0
17/04:30pm 32.9 36.5 22.4 54 7.2 NE 7 15 4 8 1008.6 1007.7 0.0
17/04:00pm 34.1 37.2 22.8 51 7.8 NNE 11 20 6 11 1008.8 1007.9 0.0
17/03:30pm 33.8 36.0 22.6 52 7.7 N 15 24 8 13 1009.0 1008.1 0.0
17/03:00pm 33.8 36.3 23.2 54 7.4 N 15 24 8 13 1009.4 1008.5 0.0
17/02:30pm 33.4 35.3 22.8 53 7.3 NNE 17 24 9 13 1009.8 1008.9 0.0
17/02:00pm 33.6 35.6 23.0 54 7.4 N 17 28 9 15 1010.0 1009.1 0.0
17/01:30pm 33.0 35.6 23.3 56 6.7 N 15 28 8 15 1010.5 1009.6 0.0
17/01:00pm 32.4 34.3 23.4 59 6.3 N 19 26 10 14 1010.8 1009.9 0.0
17/12:30pm 32.0 34.2 23.3 60 6.0 NNE 17 26 9 14 1011.1 1010.2 0.0
17/12:00pm 30.7 32.9 22.6 62 5.6 NNE 15 22 8 12 1011.4 1010.5 0.0
17/11:30am 31.1 32.9 23.2 63 5.5 N 19 28 10 15 1011.7 1010.8 0.0
17/11:00am 30.6 32.9 23.5 66 4.9 N 17 28 9 15 1012.2 1011.3 0.0
17/10:30am 29.5 31.4 22.7 67 4.7 N 17 22 9 12 1012.4 1011.5 0.0
17/10:00am 29.4 30.8 23.6 71 4.0 NNE 22 30 12 16 1012.7 1011.8 0.0
17/09:30am 28.6 30.7 23.7 75 3.4 N 19 28 10 15 1012.8 1011.9 0.0
17/09:00am 27.9 29.8 23.5 77 3.0 N 19 24 10 13 1012.8 1011.9 4.2
17/08:30am 27.1 29.5 23.6 81 2.4 NNE 17 22 9 12 1012.4 1011.5 4.2
17/08:00am 25.5 29.1 23.7 90 1.2 NE 11 15 6 8 1012.2 1011.3 4.2
17/07:30am 24.9 29.1 23.5 92 1.0 NE 7 11 4 6 1011.9 1011.0 4.2
17/07:00am 24.6 29.7 23.4 93 0.8 ENE 2 6 1 3 1011.6 1010.7 4.2
17/06:30am 24.4 29.0 23.2 93 0.8 NE 4 6 2 3 1011.3 1010.4 4.2
17/06:00am 24.4 28.5 23.2 93 0.8 NE 7 11 4 6 1010.8 1009.9 4.2
17/05:30am 24.5 27.9 23.3 93 0.8 NE 11 15 6 8 1010.5 1009.6 4.2
17/05:00am 24.7 28.2 23.5 93 0.8 NE 11 15 6 8 1010.1 1009.2 4.2
17/04:30am 24.7 27.8 23.5 93 0.8 NNE 13 19 7 10 1009.7 1008.8 4.2
17/04:00am 24.6 27.7 23.6 94 0.7 NE 13 19 7 10 1009.5 1008.6 4.2
17/03:30am 24.6 27.6 23.4 93 0.8 NE 13 19 7 10 1009.4 1008.5 4.2
17/03:00am 24.5 28.9 23.5 94 0.7 NE 6 11 3 6 1009.4 1008.5 4.2
17/02:30am 24.4 28.6 23.4 94 0.7 ENE 7 9 4 5 1009.2 1008.3 4.2
17/02:00am 24.3 29.6 23.1 93 0.8 CALM 0 6 0 3 1009.2 1008.3 4.2
17/01:30am 24.3 29.7 23.3 94 0.7 CALM 0 6 0 3 1009.4 1008.5 4.2
17/01:00am 24.2 28.7 23.0 93 0.8 NNW 4 6 2 3 1009.3 1008.4 4.2
17/12:30am 24.5 29.8 23.1 92 1.0 CALM 0 0 0 0 1009.5 1008.6 4.2
17/12:00am 24.6 30.1 23.4 93 0.8 CALM 0 0 0 0 1009.4 1008.5 4.2
 
Date/Time
EST
Temp
°C
App
Temp
°C
Dew
Point
°C
Rel
Hum
%
Delta-T
°C
Wind Press
QNH
hPa
Press
MSL
hPa
Rain since
9am
mm
Dir  Spd
km/h
Gust
km/h
Spd
kts
Gust
kts
16/11:30pm 24.6 30.1 23.4 93 0.8 CALM 0 2 0 1 1009.8 1008.9 4.0
16/11:00pm 24.6 30.2 23.6 94 0.7 CALM 0 4 0 2 1010.2 1009.3 3.8
16/10:30pm 24.4 29.8 23.2 93 0.8 CALM 0 6 0 3 1010.2 1009.3 3.6
16/10:00pm 24.6 29.0 23.4 93 0.8 NNE 6 9 3 5 1010.0 1009.1 3.4
16/09:30pm 24.7 29.4 23.3 92 1.0 NNE 4 11 2 6 1009.3 1008.4 3.4
16/09:00pm 25.0 27.3 23.4 91 1.1 N 17 26 9 14 1009.4 1008.5 3.4
16/08:30pm 25.1 27.0 23.5 91 1.1 NNW 19 28 10 15 1009.3 1008.4 3.4
16/08:00pm 25.4 26.8 23.5 89 1.3 NW 22 32 12 17 1008.7 1007.8 3.4
16/07:30pm 26.1 31.5 23.2 84 2.0 CALM 0 0 0 0 1008.4 1007.5 3.4
16/07:00pm 26.3 28.7 23.0 82 2.3 W 15 28 8 15 1007.4 1006.4 3.4
16/06:35pm 28.1 31.0 23.2 74 3.4 WNW 13 33 7 18 1007.1 1006.1 3.4

Other Formats:

Comma delimited format used in spreadsheet applications
http://www.bom.gov.au/fwo/IDQ60801/IDQ60801.94337.axf

JavaScript Object Notation format (JSON) in row-major order
http://www.bom.gov.au/fwo/IDQ60801/IDQ60801.94337.json